createdAt,value
2019-01-15T00:00:15.627Z,77
2019-01-15T00:01:24.818Z,76.1
2019-01-15T00:02:33.952Z,76.2
2019-01-15T00:03:43.120Z,75.6
2019-01-15T00:04:52.297Z,75.8
2019-01-15T00:06:01.466Z,76.3
2019-01-15T00:07:10.622Z,76.5
2019-01-15T00:08:19.809Z,76.1
2019-01-15T00:09:28.969Z,76.3
2019-01-15T00:10:38.128Z,76.8
2019-01-15T00:11:47.382Z,76.5
2019-01-15T00:12:56.471Z,76.5
2019-01-15T00:14:05.685Z,76
2019-01-15T00:15:14.874Z,76.2
2019-01-15T00:16:24.006Z,76
2019-01-15T00:17:33.170Z,75.2
2019-01-15T00:18:42.330Z,75.2
2019-01-15T00:19:51.490Z,75.5
2019-01-15T00:21:00.662Z,75.2
2019-01-15T00:22:09.848Z,75.5
2019-01-15T00:23:19.020Z,74.9
2019-01-15T00:24:28.185Z,74.8
2019-01-15T00:25:37.353Z,75.4
2019-01-15T00:26:46.522Z,74.8
2019-01-15T00:27:55.694Z,74.7
2019-01-15T00:29:04.881Z,75.2
2019-01-15T00:30:14.061Z,75.7
2019-01-15T00:31:23.218Z,75.6
2019-01-15T00:32:32.419Z,75.7
2019-01-15T00:33:41.572Z,75.7
2019-01-15T00:34:50.760Z,75.6
2019-01-15T00:35:59.913Z,75.5
2019-01-15T00:37:09.090Z,75.4
2019-01-15T00:38:18.308Z,76
2019-01-15T00:39:27.445Z,76.1
2019-01-15T00:40:36.621Z,76.5
2019-01-15T00:41:45.789Z,75.9
2019-01-15T00:42:54.985Z,75.4
2019-01-15T00:44:04.150Z,75.4
2019-01-15T00:45:13.322Z,76
2019-01-15T00:46:22.527Z,76.2
2019-01-15T00:47:31.699Z,76.2
2019-01-15T00:48:40.869Z,76.3
2019-01-15T00:49:50.043Z,76.6
2019-01-15T00:50:59.253Z,76.5
2019-01-15T00:52:08.378Z,75.9
2019-01-15T00:53:17.564Z,75
2019-01-15T00:54:26.729Z,75.3
2019-01-15T00:55:35.921Z,74.8
2019-01-15T00:56:45.080Z,75.3
2019-01-15T00:57:54.287Z,75.9
2019-01-15T00:59:03.508Z,76.5
2019-01-15T01:00:12.612Z,75.9
2019-01-15T01:01:21.903Z,75.8
2019-01-15T01:02:30.977Z,76
2019-01-15T01:03:40.149Z,75.6
2019-01-15T01:04:49.326Z,75.9
2019-01-15T01:05:58.485Z,75.8
2019-01-15T01:07:07.670Z,76
2019-01-15T01:08:16.844Z,75.4
2019-01-15T01:09:26.019Z,75.8
2019-01-15T01:10:35.230Z,75.1
2019-01-15T01:11:44.369Z,74.5
2019-01-15T01:12:53.543Z,75.1
2019-01-15T01:14:02.770Z,75.4
2019-01-15T01:15:11.919Z,75.1
2019-01-15T01:16:21.104Z,75.6
2019-01-15T01:17:30.262Z,75.6
2019-01-15T01:18:39.491Z,75.9
2019-01-15T01:19:48.635Z,75.5
2019-01-15T01:20:57.800Z,75.5
2019-01-15T01:22:06.962Z,75.9
2019-01-15T01:23:16.303Z,75.8
2019-01-15T01:24:25.318Z,75.8
2019-01-15T01:25:34.501Z,75.2
2019-01-15T01:26:43.678Z,76.3
2019-01-15T01:27:52.867Z,76.1
2019-01-15T01:29:02.106Z,76.2
2019-01-15T01:30:11.212Z,75.7
2019-01-15T01:31:20.368Z,75.6
2019-01-15T01:32:29.566Z,75.6
2019-01-15T01:33:38.724Z,74.7
2019-01-15T01:34:47.899Z,74.3
2019-01-15T01:35:57.072Z,74.3
2019-01-15T01:37:07.505Z,74.4
2019-01-15T01:38:15.468Z,74
2019-01-15T01:39:24.689Z,73.7
2019-01-15T01:40:33.780Z,73.5
2019-01-15T01:41:42.960Z,73.5
2019-01-15T01:42:52.275Z,72.6
2019-01-15T01:44:01.371Z,72.8
2019-01-15T01:45:10.498Z,73.6
2019-01-15T01:46:19.909Z,73.4
2019-01-15T01:47:28.871Z,73.7
2019-01-15T01:48:38.057Z,74.1
2019-01-15T01:49:47.206Z,73.2
2019-01-15T01:50:56.386Z,74.2
2019-01-15T01:52:05.673Z,73.8
2019-01-15T01:53:14.740Z,74.3
2019-01-15T01:54:23.957Z,74.3
2019-01-15T01:55:33.095Z,74.3
2019-01-15T01:56:42.287Z,73.4
2019-01-15T01:57:51.452Z,73
2019-01-15T01:59:00.634Z,73.1
2019-01-15T02:00:09.866Z,73.8
2019-01-15T02:01:18.976Z,74
2019-01-15T02:02:28.154Z,74.2
2019-01-15T02:03:37.331Z,73.9
2019-01-15T02:04:46.548Z,74.3
2019-01-15T02:05:55.684Z,74.3
2019-01-15T02:07:04.856Z,74.3
2019-01-15T02:08:14.038Z,74.3
2019-01-15T02:09:23.216Z,74.3
2019-01-15T02:10:32.485Z,74.3
2019-01-15T02:11:41.581Z,73.8
2019-01-15T02:12:50.903Z,73.8
2019-01-15T02:13:59.910Z,74.4
2019-01-15T02:15:09.084Z,73.8
2019-01-15T02:16:18.260Z,74
2019-01-15T02:17:27.450Z,73.8
2019-01-15T02:18:36.631Z,73.7
2019-01-15T02:19:45.822Z,73.4
2019-01-15T02:20:54.986Z,73.1
2019-01-15T02:22:04.150Z,73.6
2019-01-15T02:23:13.350Z,74.5
2019-01-15T02:24:22.523Z,73.7
2019-01-15T02:25:31.728Z,72.5
2019-01-15T02:26:40.881Z,72.3
2019-01-15T02:27:50.059Z,71.8
2019-01-15T02:28:59.240Z,71.6
2019-01-15T02:30:08.424Z,71.3
2019-01-15T02:31:17.607Z,71.4
2019-01-15T02:32:26.786Z,72.2
2019-01-15T02:33:35.965Z,71.6
2019-01-15T02:34:45.191Z,72.5
2019-01-15T02:35:55.974Z,72.1
2019-01-15T02:37:05.143Z,72
2019-01-15T02:38:14.327Z,71.7
2019-01-15T02:39:23.521Z,71.7
2019-01-15T02:40:32.696Z,72.5
2019-01-15T02:41:42.067Z,73
2019-01-15T02:42:51.062Z,73
2019-01-15T02:44:00.298Z,72.7
2019-01-15T02:45:09.425Z,73
2019-01-15T02:46:18.610Z,73.4
2019-01-15T02:47:27.789Z,73.5
2019-01-15T02:48:36.987Z,74.3
2019-01-15T02:49:46.240Z,74.3
2019-01-15T02:52:04.571Z,75.6
2019-01-15T02:53:13.712Z,75.5
2019-01-15T02:54:22.898Z,74.9
2019-01-15T02:55:32.077Z,75.1
2019-01-15T02:56:41.274Z,76.3
2019-01-15T02:57:50.535Z,76.8
2019-01-15T02:58:59.611Z,76.1
2019-01-15T03:00:08.794Z,76.4
2019-01-15T03:01:17.968Z,76.7
2019-01-15T03:02:27.137Z,76.8
2019-01-15T03:03:36.334Z,77.9
2019-01-15T03:04:45.526Z,77.9
2019-01-15T03:05:54.710Z,78.1
2019-01-15T03:07:03.877Z,78.5
2019-01-15T03:08:13.058Z,77.6
2019-01-15T03:09:22.219Z,78.4
2019-01-15T03:10:31.438Z,79.2
2019-01-15T03:11:40.663Z,78.2
2019-01-15T03:12:56.513Z,78.7
2019-01-15T03:13:58.919Z,79.2
2019-01-15T03:15:08.103Z,80
2019-01-15T03:16:17.316Z,80
2019-01-15T03:17:26.445Z,80
2019-01-15T03:18:35.622Z,80
2019-01-15T03:19:44.792Z,80
2019-01-15T03:20:53.964Z,80
2019-01-15T03:22:03.203Z,80
2019-01-15T03:23:12.308Z,80
2019-01-15T03:24:21.475Z,80
2019-01-15T03:25:30.655Z,80
2019-01-15T03:26:39.823Z,80
2019-01-15T03:27:48.995Z,80.5
2019-01-15T03:28:58.189Z,80.7
2019-01-15T03:30:07.346Z,81.5
2019-01-15T03:31:16.628Z,81.8
2019-01-15T03:32:25.733Z,81.5
2019-01-15T03:33:34.862Z,82.1
2019-01-15T03:34:44.034Z,82.6
2019-01-15T03:35:53.206Z,84
2019-01-15T03:37:02.381Z,83.2
2019-01-15T03:38:11.524Z,83.2
2019-01-15T03:39:20.732Z,84
2019-01-15T03:40:29.866Z,84.2
2019-01-15T03:41:39.048Z,85.7
2019-01-15T03:42:48.190Z,85
2019-01-15T03:43:57.382Z,85.3
2019-01-15T03:45:06.535Z,84.1
2019-01-15T03:46:15.701Z,85.5
2019-01-15T03:47:24.875Z,85.7
2019-01-15T03:48:34.034Z,84.3
2019-01-15T03:49:43.207Z,84.3
2019-01-15T03:50:52.418Z,82.9
2019-01-15T03:52:01.556Z,82.4
2019-01-15T03:53:10.722Z,82.5
2019-01-15T03:54:19.872Z,82.1
2019-01-15T03:55:29.039Z,82.6
2019-01-15T03:56:38.237Z,83.7
2019-01-15T03:57:47.452Z,83
2019-01-15T03:58:56.558Z,82.3
2019-01-15T04:00:05.737Z,83.2
2019-01-15T04:01:14.895Z,83.1
2019-01-15T04:02:24.091Z,83.4
2019-01-15T04:03:33.245Z,83
2019-01-15T04:04:42.416Z,82.6
2019-01-15T04:05:51.625Z,83.1
2019-01-15T04:07:00.766Z,83.2
2019-01-15T04:08:09.938Z,83.2
2019-01-15T04:09:19.118Z,82.5
2019-01-15T04:10:28.363Z,82.8
2019-01-15T04:11:37.475Z,82.9
2019-01-15T04:12:46.688Z,83.6
2019-01-15T04:13:55.809Z,83.6
2019-01-15T04:15:05.030Z,83.8
2019-01-15T04:16:14.170Z,84.5
2019-01-15T04:17:23.330Z,84.7
2019-01-15T04:18:32.584Z,84.8
2019-01-15T04:19:41.752Z,85.1
2019-01-15T04:20:50.935Z,85
2019-01-15T04:22:00.044Z,86.1
2019-01-15T04:23:09.217Z,86.4
2019-01-15T04:24:18.401Z,86.2
2019-01-15T04:25:27.574Z,86.7
2019-01-15T04:26:36.733Z,86.2
2019-01-15T04:27:45.932Z,86.2
2019-01-15T04:28:55.091Z,86.2
2019-01-15T04:30:04.324Z,85.9
2019-01-15T04:31:13.459Z,85.3
2019-01-15T04:32:22.638Z,85.6
2019-01-15T04:33:31.821Z,86.1
2019-01-15T04:34:40.993Z,85.9
2019-01-15T04:35:50.165Z,85.6
2019-01-15T04:36:59.369Z,86.3
2019-01-15T04:38:08.539Z,86.3
2019-01-15T04:39:17.767Z,86.3
2019-01-15T04:40:26.906Z,86.3
2019-01-15T04:41:36.080Z,86.6
2019-01-15T04:42:45.276Z,87.8
2019-01-15T04:43:54.459Z,87.6
2019-01-15T04:45:03.627Z,87.8
2019-01-15T04:46:12.867Z,87
2019-01-15T04:47:21.999Z,87.8
2019-01-15T04:48:31.284Z,88.1
2019-01-15T04:49:40.459Z,88.1
2019-01-15T04:50:49.543Z,88.1
2019-01-15T04:51:58.743Z,87.7
2019-01-15T04:53:07.952Z,87.3
2019-01-15T04:54:17.136Z,87.1
2019-01-15T04:55:26.376Z,88
2019-01-15T04:56:35.485Z,87.3
2019-01-15T04:57:44.688Z,87.4
2019-01-15T04:58:53.921Z,86.6
2019-01-15T05:00:03.057Z,87.6
2019-01-15T05:01:12.263Z,86.6
2019-01-15T05:02:21.421Z,86.5
2019-01-15T05:03:30.618Z,86.8
2019-01-15T05:04:39.825Z,86.5
2019-01-15T05:05:49.015Z,86.6
2019-01-15T05:06:58.204Z,87.6
2019-01-15T05:08:07.391Z,87.3
2019-01-15T05:09:16.590Z,86.6
2019-01-15T05:10:25.771Z,86.6
2019-01-15T05:11:34.972Z,86.6
2019-01-15T05:12:44.180Z,86.2
2019-01-15T05:13:53.372Z,85.6
2019-01-15T05:15:02.748Z,86.6
2019-01-15T05:16:11.736Z,86.2
2019-01-15T05:17:20.909Z,85
2019-01-15T05:18:30.135Z,85
2019-01-15T05:19:39.323Z,84.2
2019-01-15T05:20:48.496Z,84.5
2019-01-15T05:21:57.691Z,84.6
2019-01-15T05:23:06.955Z,85.1
2019-01-15T05:24:16.093Z,85.3
2019-01-15T05:25:25.282Z,85
2019-01-15T05:26:34.479Z,83.8
2019-01-15T05:27:43.681Z,83.3
2019-01-15T05:28:52.870Z,83.3
2019-01-15T05:30:02.182Z,83.4
2019-01-15T05:31:11.276Z,83.1
2019-01-15T05:32:20.453Z,83.2
2019-01-15T05:33:29.653Z,82.5
2019-01-15T05:34:38.843Z,83.2
2019-01-15T05:35:48.058Z,82.2
2019-01-15T05:36:57.252Z,82.6
2019-01-15T05:38:06.437Z,82.9
2019-01-15T05:39:15.638Z,82.6
2019-01-15T05:40:24.903Z,82.4
2019-01-15T05:41:34.048Z,82.1
2019-01-15T05:42:43.233Z,81.6
2019-01-15T05:43:52.426Z,81
2019-01-15T05:45:01.623Z,81.2
2019-01-15T05:46:10.819Z,81
2019-01-15T05:47:20.054Z,81
2019-01-15T05:48:29.271Z,81
2019-01-15T05:49:38.425Z,81.1
2019-01-15T05:50:47.623Z,81
2019-01-15T05:51:56.862Z,81
2019-01-15T05:53:06.033Z,81
2019-01-15T05:54:15.229Z,81
2019-01-15T05:55:24.476Z,81
2019-01-15T05:56:33.647Z,81.1
2019-01-15T05:57:42.814Z,81.1
2019-01-15T05:58:52.037Z,80.7
2019-01-15T06:00:01.301Z,79.8
2019-01-15T06:01:10.452Z,78.9
2019-01-15T06:02:19.639Z,79.2
2019-01-15T06:03:28.847Z,79.1
2019-01-15T06:04:38.038Z,79.1
2019-01-15T06:05:47.241Z,78.6
2019-01-15T06:06:56.444Z,78.8
2019-01-15T06:08:05.688Z,78.6
2019-01-15T06:09:14.847Z,77.8
2019-01-15T06:10:24.056Z,77.6
2019-01-15T06:11:33.371Z,77.8
2019-01-15T06:12:42.459Z,77.6
2019-01-15T06:13:51.668Z,77.3
2019-01-15T06:15:00.972Z,77.1
2019-01-15T06:16:10.071Z,77.1
2019-01-15T06:17:19.274Z,76.7
2019-01-15T06:18:28.477Z,76.3
2019-01-15T06:19:37.686Z,76.1
2019-01-15T06:20:46.881Z,76.4
2019-01-15T06:21:57.274Z,75.3
2019-01-15T06:23:05.352Z,75.9
2019-01-15T06:24:14.573Z,75.3
2019-01-15T06:25:23.701Z,75.3
2019-01-15T06:26:32.996Z,74.6
2019-01-15T06:27:42.124Z,74.3
2019-01-15T06:28:51.336Z,74.3
2019-01-15T06:30:00.577Z,74.8
2019-01-15T06:31:09.818Z,74
2019-01-15T06:32:18.938Z,74.1
2019-01-15T06:33:28.148Z,74.3
2019-01-15T06:34:37.344Z,74.8
2019-01-15T06:35:46.557Z,73.7
2019-01-15T06:36:55.742Z,73.9
2019-01-15T06:38:05.006Z,73.8
2019-01-15T06:39:14.169Z,73.6
2019-01-15T06:40:23.378Z,74.5
2019-01-15T06:41:32.577Z,74.1
2019-01-15T06:42:41.799Z,73.7
2019-01-15T06:43:50.981Z,73.3
2019-01-15T06:45:00.215Z,73.1
2019-01-15T06:46:09.483Z,73.8
2019-01-15T06:47:18.596Z,72.3
2019-01-15T06:48:27.836Z,72.4
2019-01-15T06:49:37.149Z,72.3
2019-01-15T06:50:46.460Z,72.2
2019-01-15T06:51:55.512Z,72.8
2019-01-15T06:53:04.636Z,72.8
2019-01-15T06:54:14.337Z,72.8
2019-01-15T06:55:23.055Z,72.8
2019-01-15T06:56:32.328Z,72.3
2019-01-15T06:57:41.478Z,72.8
2019-01-15T06:58:50.681Z,72.8
2019-01-15T06:59:59.910Z,72.5
2019-01-15T07:01:09.087Z,72.8
2019-01-15T07:02:18.298Z,72.5
2019-01-15T07:03:27.512Z,72.4
2019-01-15T07:04:44.137Z,72.6
2019-01-15T07:05:45.915Z,72.5
2019-01-15T07:06:55.156Z,72.9
2019-01-15T07:08:04.329Z,72.8
2019-01-15T07:09:13.546Z,72.3
2019-01-15T07:10:22.755Z,73
2019-01-15T07:11:31.949Z,72.5
2019-01-15T07:12:41.170Z,72.3
2019-01-15T07:13:57.247Z,72.2
2019-01-15T07:14:59.634Z,72.4
2019-01-15T07:16:08.822Z,72.1
2019-01-15T07:17:18.163Z,72.1
2019-01-15T07:18:27.241Z,72.1
2019-01-15T07:19:36.404Z,71.9
2019-01-15T07:20:45.615Z,71.6
2019-01-15T07:21:54.816Z,71.8
2019-01-15T07:23:04.028Z,71.8
2019-01-15T07:24:13.228Z,71.7
2019-01-15T07:25:22.446Z,71.7
2019-01-15T07:26:31.645Z,71.8
2019-01-15T07:27:40.871Z,72.3
2019-01-15T07:28:50.084Z,71.6
2019-01-15T07:29:59.275Z,71.5
2019-01-15T07:31:08.475Z,72
2019-01-15T07:32:17.829Z,71.7
2019-01-15T07:33:26.890Z,72.5
2019-01-15T07:34:36.120Z,72.1
2019-01-15T07:35:45.310Z,72.6
2019-01-15T07:36:54.520Z,71.9
2019-01-15T07:38:03.783Z,72.9
2019-01-15T07:39:12.937Z,72.4
2019-01-15T07:40:22.140Z,73
2019-01-15T07:41:31.410Z,73
2019-01-15T07:42:40.571Z,73.3
2019-01-15T07:43:49.769Z,72.6
2019-01-15T07:44:59.049Z,73
2019-01-15T07:46:08.202Z,72.7
2019-01-15T07:47:17.470Z,73
2019-01-15T07:48:26.695Z,72.8
2019-01-15T07:49:35.839Z,72.7
2019-01-15T07:50:45.047Z,73
2019-01-15T07:51:54.255Z,73.1
2019-01-15T07:53:03.483Z,72.6
2019-01-15T07:54:12.681Z,72.8
2019-01-15T07:55:21.892Z,72.6
2019-01-15T07:56:31.120Z,73.2
2019-01-15T07:57:41.865Z,73.6
2019-01-15T07:58:51.060Z,73.4
2019-01-15T08:00:00.284Z,73.1
2019-01-15T08:01:09.480Z,72.7
2019-01-15T08:02:18.708Z,73.7
2019-01-15T08:03:28.983Z,73.7
2019-01-15T08:04:37.119Z,73.6
2019-01-15T08:05:46.370Z,74.6
2019-01-15T08:06:55.672Z,73.9
2019-01-15T08:08:04.770Z,75
2019-01-15T08:09:13.969Z,74.8
2019-01-15T08:10:23.206Z,74.5
2019-01-15T08:11:32.428Z,75.1
2019-01-15T08:12:41.611Z,75.4
2019-01-15T08:13:50.838Z,75.5
2019-01-15T08:15:00.037Z,75.5
2019-01-15T08:16:09.256Z,75.7
2019-01-15T08:17:18.475Z,75.5
2019-01-15T08:18:27.687Z,75.5
2019-01-15T08:19:36.907Z,75.5
2019-01-15T08:20:46.139Z,75.7
2019-01-15T08:21:55.355Z,76.5
2019-01-15T08:23:04.537Z,75.4
2019-01-15T08:24:13.765Z,76.1
2019-01-15T08:25:22.959Z,76.3
2019-01-15T08:26:32.207Z,76.8
2019-01-15T08:27:41.414Z,76.7
2019-01-15T08:28:50.603Z,76.6
2019-01-15T08:29:59.827Z,77
2019-01-15T08:31:09.032Z,76.8
2019-01-15T08:32:18.277Z,76.3
2019-01-15T08:33:27.453Z,76.3
2019-01-15T08:34:36.692Z,76.6
2019-01-15T08:35:45.896Z,77.3
2019-01-15T08:36:55.135Z,77.3
2019-01-15T08:38:04.337Z,78.1
2019-01-15T08:39:13.587Z,78.2
2019-01-15T08:40:22.771Z,78.8
2019-01-15T08:41:32.024Z,79.1
2019-01-15T08:42:41.227Z,79.1
2019-01-15T08:43:50.386Z,78.3
2019-01-15T08:44:59.612Z,78.7
2019-01-15T08:46:08.823Z,78.6
2019-01-15T08:47:18.036Z,78.9
2019-01-15T08:48:27.271Z,79.5
2019-01-15T08:49:36.497Z,79.1
2019-01-15T08:50:45.686Z,79.1
2019-01-15T08:51:54.905Z,79.2
2019-01-15T08:53:04.160Z,79.7
2019-01-15T08:54:13.340Z,79.9
2019-01-15T08:55:22.552Z,79.9
2019-01-15T08:56:31.766Z,80.4
2019-01-15T08:57:40.993Z,81.1
2019-01-15T08:58:50.211Z,81.4
2019-01-15T08:59:59.415Z,81.4
2019-01-15T09:01:08.634Z,81.4
2019-01-15T09:02:17.859Z,81.5
2019-01-15T09:03:27.064Z,83.6
2019-01-15T09:04:36.285Z,83.3
2019-01-15T09:05:45.494Z,83.6
2019-01-15T09:06:54.763Z,84.6
2019-01-15T09:08:03.936Z,84.8
2019-01-15T09:09:13.156Z,84.9
2019-01-15T09:10:22.358Z,85.9
2019-01-15T09:11:31.570Z,86.3
2019-01-15T09:12:40.811Z,86.9
2019-01-15T09:13:50.022Z,87.2
2019-01-15T09:14:59.239Z,87.2
2019-01-15T09:16:08.438Z,88.4
2019-01-15T09:17:17.751Z,90.2
2019-01-15T09:18:26.879Z,90.7
2019-01-15T09:19:36.112Z,91.2
2019-01-15T09:20:45.329Z,91.7
2019-01-15T09:21:54.596Z,92.2
2019-01-15T09:23:03.825Z,93.2
2019-01-15T09:24:12.974Z,93.9
2019-01-15T09:25:22.184Z,94.6
2019-01-15T09:26:31.420Z,95.3
2019-01-15T09:27:40.680Z,95.5
2019-01-15T09:28:49.834Z,96.2
2019-01-15T09:29:59.048Z,96.1
2019-01-15T09:31:08.254Z,95.8
2019-01-15T09:32:17.516Z,96.1
2019-01-15T09:33:26.686Z,96.1
2019-01-15T09:34:35.898Z,96.6
2019-01-15T09:35:45.120Z,96.1
2019-01-15T09:36:54.338Z,95.7
2019-01-15T09:38:03.557Z,95
2019-01-15T09:39:12.776Z,94.7
2019-01-15T09:40:21.984Z,94.7
2019-01-15T09:41:31.374Z,94.2
2019-01-15T09:42:40.414Z,93.8
2019-01-15T09:43:49.630Z,93.8
2019-01-15T09:44:58.848Z,93.8
2019-01-15T09:46:08.066Z,94.3
2019-01-15T09:47:17.463Z,94.4
2019-01-15T09:48:26.506Z,94.6
2019-01-15T09:49:35.723Z,95.9
2019-01-15T09:50:44.929Z,96.2
2019-01-15T09:51:54.148Z,96.2
2019-01-15T09:53:03.380Z,96.4
2019-01-15T09:54:12.595Z,96.7
2019-01-15T09:55:21.863Z,96.8
2019-01-15T09:56:31.046Z,96.3
2019-01-15T09:57:40.324Z,96.3
2019-01-15T09:58:49.467Z,97.1
2019-01-15T09:59:58.674Z,97
2019-01-15T10:01:07.937Z,96.6
2019-01-15T10:02:17.115Z,96.9
2019-01-15T10:03:26.406Z,97
2019-01-15T10:04:35.550Z,96.4
2019-01-15T10:05:44.760Z,97
2019-01-15T10:06:54.016Z,96.8
2019-01-15T10:08:03.215Z,96.3
2019-01-15T10:09:12.429Z,97.2
2019-01-15T10:10:21.651Z,97.9
2019-01-15T10:11:30.935Z,98.1
2019-01-15T10:12:40.090Z,99
2019-01-15T10:13:49.320Z,99.6
2019-01-15T10:14:58.538Z,99.9
2019-01-15T10:16:07.798Z,99.9
2019-01-15T10:17:16.975Z,99.9
2019-01-15T10:18:26.208Z,99.9
2019-01-15T10:19:35.451Z,99.9
2019-01-15T10:20:44.655Z,99.9
2019-01-15T10:21:53.923Z,99.9
2019-01-15T10:23:03.097Z,99.9
2019-01-15T10:24:12.324Z,99.2
2019-01-15T10:25:21.580Z,99.4
2019-01-15T10:26:30.809Z,99.3
2019-01-15T10:27:40.003Z,99.6
2019-01-15T10:28:49.328Z,99.3
2019-01-15T10:29:59.458Z,99.4
2019-01-15T10:31:07.665Z,98.7
2019-01-15T10:32:16.888Z,98.2
2019-01-15T10:33:26.107Z,97.9
2019-01-15T10:34:35.385Z,97.6
2019-01-15T10:35:44.573Z,98
2019-01-15T10:36:53.911Z,97.9
2019-01-15T10:38:03.041Z,98.4
2019-01-15T10:39:12.265Z,98.3
2019-01-15T10:40:21.477Z,97.8
2019-01-15T10:41:30.701Z,96.6
2019-01-15T10:42:39.939Z,96.6
2019-01-15T10:43:49.166Z,96.5
2019-01-15T10:44:58.429Z,96.8
2019-01-15T10:46:07.617Z,96.1
2019-01-15T10:47:16.861Z,96.1
2019-01-15T10:48:26.107Z,95.9
2019-01-15T10:49:35.424Z,94.9
2019-01-15T10:50:44.565Z,94.4
2019-01-15T10:51:53.801Z,94.1
2019-01-15T10:53:03.087Z,94.6
2019-01-15T10:54:12.284Z,93.8
2019-01-15T10:55:21.526Z,93.1
2019-01-15T10:56:30.768Z,93.1
2019-01-15T10:57:39.985Z,92.9
2019-01-15T10:58:49.229Z,92.7
2019-01-15T10:59:58.463Z,93
2019-01-15T11:01:07.694Z,92.5
2019-01-15T11:02:16.936Z,92.6
2019-01-15T11:03:26.188Z,93.3
2019-01-15T11:04:35.446Z,92.5
2019-01-15T11:05:44.670Z,92.9
2019-01-15T11:06:54.010Z,92.5
2019-01-15T11:08:03.145Z,92.9
2019-01-15T11:09:12.396Z,92.2
2019-01-15T11:10:21.611Z,91.6
2019-01-15T11:11:30.857Z,92.3
2019-01-15T11:12:40.101Z,92
2019-01-15T11:13:49.341Z,91.6
2019-01-15T11:14:58.564Z,92.5
2019-01-15T11:16:07.813Z,92.2
2019-01-15T11:17:17.051Z,92.1
2019-01-15T11:18:26.300Z,92.2
2019-01-15T11:19:35.525Z,92.1
2019-01-15T11:20:44.776Z,92.4
2019-01-15T11:21:54.005Z,91.9
2019-01-15T11:23:03.247Z,92.2
2019-01-15T11:24:12.528Z,92.6
2019-01-15T11:25:21.728Z,91.6
2019-01-15T11:26:30.960Z,91.6
2019-01-15T11:27:40.214Z,92.5
2019-01-15T11:28:49.527Z,92.4
2019-01-15T11:29:58.746Z,92
2019-01-15T11:31:07.955Z,91.6
2019-01-15T11:32:17.179Z,92.1
2019-01-15T11:33:26.401Z,92.3
2019-01-15T11:34:35.646Z,93
2019-01-15T11:35:44.898Z,93.9
2019-01-15T11:36:54.131Z,94.7
2019-01-15T11:38:03.341Z,95.8
2019-01-15T11:39:12.726Z,96.3
2019-01-15T11:40:21.904Z,96.6
2019-01-15T11:41:31.090Z,96.9
2019-01-15T11:42:40.311Z,97.3
2019-01-15T11:43:49.550Z,97.1
2019-01-15T11:45:03.859Z,98.3
2019-01-15T11:46:08.019Z,99.1
2019-01-15T11:47:17.334Z,99.4
2019-01-15T11:48:26.480Z,99.9
2019-01-15T11:49:35.718Z,99.9
2019-01-15T11:50:44.959Z,99.9
2019-01-15T11:51:54.217Z,99.9
2019-01-15T11:53:03.551Z,99.9
2019-01-15T11:54:12.968Z,99.9
2019-01-15T11:55:21.912Z,99.9
2019-01-15T11:56:31.184Z,99.9
2019-01-15T11:57:40.374Z,99.9
2019-01-15T11:58:49.653Z,99.9
2019-01-15T11:59:58.854Z,99.9
2019-01-15T12:01:08.094Z,99.9
2019-01-15T12:02:22.529Z,99.9
2019-01-15T12:03:26.568Z,99.9
2019-01-15T12:04:35.775Z,99.9
2019-01-15T12:05:45.024Z,99.9
2019-01-15T12:06:54.288Z,99.9
2019-01-15T12:08:03.485Z,99.9
2019-01-15T12:09:12.742Z,99.9
2019-01-15T12:10:21.961Z,99.9
2019-01-15T12:11:31.295Z,99.9
2019-01-15T12:12:40.450Z,99.9
2019-01-15T12:13:49.675Z,99.9
2019-01-15T12:14:58.958Z,99.9
2019-01-15T12:16:08.152Z,99.9
2019-01-15T12:17:17.482Z,99.9
2019-01-15T12:18:26.621Z,99.9
2019-01-15T12:19:35.861Z,99.9
2019-01-15T12:20:45.120Z,99.9
2019-01-15T12:21:54.353Z,99.9
2019-01-15T12:23:03.591Z,99.9
2019-01-15T12:24:12.839Z,99.9
2019-01-15T12:25:22.106Z,99.9
2019-01-15T12:26:31.630Z,99.9
2019-01-15T12:27:40.584Z,99.9
2019-01-15T12:28:49.817Z,99.9
2019-01-15T12:29:59.061Z,99.9
2019-01-15T12:31:08.308Z,99.9
2019-01-15T12:32:17.644Z,99.9
2019-01-15T12:33:26.778Z,99.9
2019-01-15T12:34:36.022Z,99.9
2019-01-15T12:35:45.270Z,99.9
2019-01-15T12:36:54.511Z,99.9
2019-01-15T12:38:03.802Z,99.9
2019-01-15T12:39:13.016Z,99.9
2019-01-15T12:40:22.248Z,99.9
2019-01-15T12:41:31.489Z,99.9
2019-01-15T12:42:40.775Z,99.9
2019-01-15T12:43:50.029Z,99.9
2019-01-15T12:44:59.221Z,99.9
2019-01-15T12:46:08.467Z,99.9
2019-01-15T12:47:17.715Z,99.9
2019-01-15T12:48:26.953Z,99.9
2019-01-15T12:49:36.212Z,99.9
2019-01-15T12:50:45.443Z,99.9
2019-01-15T12:51:54.694Z,99.9
2019-01-15T12:53:03.923Z,99.9
2019-01-15T12:54:13.245Z,99.9
2019-01-15T12:56:31.653Z,99.9
2019-01-15T12:57:40.914Z,99.9
2019-01-15T12:58:50.169Z,99.9
2019-01-15T12:59:59.399Z,99.9
2019-01-15T13:01:08.623Z,99.9
2019-01-15T13:02:17.867Z,99.9
2019-01-15T13:03:27.104Z,99.9
2019-01-15T13:04:36.325Z,99.9
2019-01-15T13:05:45.602Z,99.9
2019-01-15T13:06:54.810Z,99.9
2019-01-15T13:08:04.077Z,99.9
2019-01-15T13:09:13.286Z,99.9
2019-01-15T13:10:22.528Z,99.9
2019-01-15T13:11:31.759Z,99.9
2019-01-15T13:12:41.043Z,99.9
2019-01-15T13:13:50.244Z,99.9
2019-01-15T13:14:59.490Z,99.9
2019-01-15T13:16:08.724Z,99.9
2019-01-15T13:17:17.961Z,99.9
2019-01-15T13:18:27.239Z,99.9
2019-01-15T13:19:36.503Z,99.9
2019-01-15T13:20:45.733Z,99.9
2019-01-15T13:21:54.936Z,99.9
2019-01-15T13:23:04.168Z,99.9
2019-01-15T13:24:13.395Z,99.9
2019-01-15T13:25:22.624Z,99.9
2019-01-15T13:26:31.912Z,99.9
2019-01-15T13:27:41.164Z,99.9
2019-01-15T13:28:50.369Z,99.9
2019-01-15T13:29:59.582Z,99.9
2019-01-15T13:31:08.826Z,99.9
2019-01-15T13:32:18.128Z,99.9
2019-01-15T13:33:27.298Z,99.9
2019-01-15T13:34:36.543Z,99.9
2019-01-15T13:35:45.785Z,99.9
2019-01-15T13:36:55.030Z,99.9
2019-01-15T13:38:04.272Z,99.9
2019-01-15T13:39:13.517Z,99.9
2019-01-15T13:40:22.768Z,99.9
2019-01-15T13:41:32.013Z,99.9
2019-01-15T13:42:41.319Z,99.9
2019-01-15T13:43:50.500Z,99.9
2019-01-15T13:44:59.733Z,99.9
2019-01-15T13:46:08.978Z,99.9
2019-01-15T13:47:18.226Z,99.9
2019-01-15T13:48:27.502Z,99.9
2019-01-15T13:49:36.700Z,99.9
2019-01-15T13:50:45.973Z,99.9
2019-01-15T13:51:55.188Z,99.9
2019-01-15T13:53:04.450Z,99.9
2019-01-15T13:54:13.675Z,99.9
2019-01-15T13:55:22.930Z,99.9
2019-01-15T13:56:32.181Z,99.9
2019-01-15T13:57:41.426Z,99.9
2019-01-15T13:58:50.735Z,99.9
2019-01-15T13:59:59.900Z,99.9
2019-01-15T14:01:09.183Z,99.9
2019-01-15T14:02:18.457Z,99.9
2019-01-15T14:03:27.653Z,99.9
2019-01-15T14:04:36.950Z,99.9
2019-01-15T14:05:46.236Z,99.9
2019-01-15T14:06:55.453Z,99.9
2019-01-15T14:08:04.672Z,99.9
2019-01-15T14:09:13.892Z,99.9
2019-01-15T14:10:23.141Z,99.9
2019-01-15T14:11:32.422Z,99.9
2019-01-15T14:12:41.641Z,99.9
2019-01-15T14:13:50.882Z,99.9
2019-01-15T14:15:00.212Z,99.9
2019-01-15T14:16:09.373Z,99.9
2019-01-15T14:17:18.628Z,99.9
2019-01-15T14:18:27.899Z,99.9
2019-01-15T14:19:37.133Z,99.9
2019-01-15T14:20:46.379Z,99.9
2019-01-15T14:21:55.596Z,99.9
2019-01-15T14:23:04.832Z,99.9
2019-01-15T14:24:14.097Z,99.9
2019-01-15T14:25:23.381Z,99.9
2019-01-15T14:26:32.670Z,99.9
2019-01-15T14:27:41.823Z,99.9
2019-01-15T14:28:51.113Z,99.9
2019-01-15T14:30:00.328Z,99.9
2019-01-15T14:31:09.546Z,99.9
2019-01-15T14:32:18.801Z,99.9
2019-01-15T14:33:28.088Z,99.9
2019-01-15T14:34:37.360Z,99.9
2019-01-15T14:35:46.557Z,99.9
2019-01-15T14:36:55.826Z,99.9
2019-01-15T14:38:05.023Z,99.9
2019-01-15T14:39:14.295Z,99.9
2019-01-15T14:40:23.570Z,99.9
2019-01-15T14:41:32.908Z,99.9
2019-01-15T14:42:42.016Z,99.9
2019-01-15T14:43:51.259Z,99.9
2019-01-15T14:45:00.505Z,99.9
2019-01-15T14:46:09.754Z,99.9
2019-01-15T14:47:19.036Z,99.9
2019-01-15T14:48:28.260Z,99.9
2019-01-15T14:49:37.523Z,99.9
2019-01-15T14:50:46.809Z,99.9
2019-01-15T14:51:56.042Z,99.9
2019-01-15T14:53:05.246Z,99.9
2019-01-15T14:54:14.500Z,99.9
2019-01-15T14:55:23.792Z,99.9
2019-01-15T14:56:33.064Z,99.9
2019-01-15T14:57:42.233Z,99.9
2019-01-15T14:58:51.486Z,99.9
2019-01-15T15:00:00.873Z,99.9
2019-01-15T15:01:10.295Z,99.9
2019-01-15T15:02:19.230Z,99.9
2019-01-15T15:03:28.516Z,99.9
2019-01-15T15:04:37.786Z,99.9
2019-01-15T15:05:46.973Z,99.9
2019-01-15T15:06:56.262Z,99.9
2019-01-15T15:08:05.479Z,99.9
2019-01-15T15:09:14.777Z,99.9
2019-01-15T15:10:23.965Z,99.9
2019-01-15T15:11:33.232Z,99.9
2019-01-15T15:12:42.484Z,99.9
2019-01-15T15:13:51.913Z,99.9
2019-01-15T15:15:00.969Z,99.9
2019-01-15T15:16:10.232Z,99.9
2019-01-15T15:17:19.479Z,99.9
2019-01-15T15:18:28.716Z,99.9
2019-01-15T15:19:37.967Z,99.9
2019-01-15T15:20:51.195Z,99.9
2019-01-15T15:21:56.496Z,99.9
2019-01-15T15:23:05.720Z,99.9
2019-01-15T15:24:14.974Z,99.9
2019-01-15T15:25:24.224Z,99.9
2019-01-15T15:26:33.471Z,99.9
2019-01-15T15:27:42.728Z,99.9